sensor_id;sensor_type;location;lat;lon;timestamp;P1;durP1;ratioP1;P2;durP2;ratioP2
39694;SDS011;25367;-35.352;149.036;2023-04-15T08:39:48;4.53;;;1.42;;
39694;SDS011;25367;-35.352;149.036;2023-04-15T08:42:18;3.95;;;1.20;;
39694;SDS011;25367;-35.352;149.036;2023-04-15T08:44:52;2.85;;;1.20;;
39694;SDS011;25367;-35.352;149.036;2023-04-15T08:47:22;4.93;;;1.65;;
39694;SDS011;25367;-35.352;149.036;2023-04-15T08:49:56;7.03;;;1.80;;
39694;SDS011;25367;-35.352;149.036;2023-04-15T08:52:26;4.28;;;1.70;;
39694;SDS011;25367;-35.352;149.036;2023-04-15T08:55:01;4.55;;;1.70;;
39694;SDS011;25367;-35.352;149.036;2023-04-15T08:57:31;6.68;;;1.50;;
39694;SDS011;25367;-35.352;149.036;2023-04-15T09:00:02;3.58;;;1.40;;
39694;SDS011;25367;-35.352;149.036;2023-04-15T09:02:32;6.68;;;1.45;;
39694;SDS011;25367;-35.352;149.036;2023-04-15T09:05:02;3.17;;;1.35;;
39694;SDS011;25367;-35.352;149.036;2023-04-15T09:07:33;6.60;;;1.60;;
39694;SDS011;25367;-35.352;149.036;2023-04-15T09:10:06;4.55;;;1.50;;
39694;SDS011;25367;-35.352;149.036;2023-04-15T09:12:36;6.72;;;1.70;;
39694;SDS011;25367;-35.352;149.036;2023-04-15T09:15:06;3.55;;;1.25;;
39694;SDS011;25367;-35.352;149.036;2023-04-15T09:17:41;4.35;;;1.85;;
39694;SDS011;25367;-35.352;149.036;2023-04-15T09:20:11;7.72;;;1.10;;
39694;SDS011;25367;-35.352;149.036;2023-04-15T09:22:42;8.30;;;1.55;;
39694;SDS011;25367;-35.352;149.036;2023-04-15T09:25:27;3.65;;;1.40;;
39694;SDS011;25367;-35.352;149.036;2023-04-15T09:27:57;6.38;;;1.42;;
39694;SDS011;25367;-35.352;149.036;2023-04-15T09:30:27;6.68;;;1.30;;
39694;SDS011;25367;-35.352;149.036;2023-04-15T09:32:57;3.97;;;1.20;;
39694;SDS011;25367;-35.352;149.036;2023-04-15T09:35:27;4.35;;;1.55;;
39694;SDS011;25367;-35.352;149.036;2023-04-15T09:38:01;8.10;;;1.50;;
39694;SDS011;25367;-35.352;149.036;2023-04-15T09:40:33;7.75;;;1.52;;
39694;SDS011;25367;-35.352;149.036;2023-04-15T09:43:04;4.40;;;1.30;;
39694;SDS011;25367;-35.352;149.036;2023-04-15T09:45:34;2.65;;;1.30;;
39694;SDS011;25367;-35.352;149.036;2023-04-15T09:50:48;5.03;;;1.70;;
39694;SDS011;25367;-35.352;149.036;2023-04-15T09:53:18;3.95;;;1.48;;
39694;SDS011;25367;-35.352;149.036;2023-04-15T09:55:55;9.85;;;1.40;;
39694;SDS011;25367;-35.352;149.036;2023-04-15T09:58:25;6.90;;;1.38;;
39694;SDS011;25367;-35.352;149.036;2023-04-15T10:00:56;9.32;;;1.60;;
39694;SDS011;25367;-35.352;149.036;2023-04-15T10:03:26;4.00;;;1.35;;
39694;SDS011;25367;-35.352;149.036;2023-04-15T10:05:57;4.63;;;1.63;;
39694;SDS011;25367;-35.352;149.036;2023-04-15T10:08:27;4.05;;;1.25;;
39694;SDS011;25367;-35.352;149.036;2023-04-15T10:11:00;5.07;;;1.20;;
39694;SDS011;25367;-35.352;149.036;2023-04-15T10:13:30;7.97;;;1.40;;
39694;SDS011;25367;-35.352;149.036;2023-04-15T10:16:00;4.68;;;1.63;;
39694;SDS011;25367;-35.352;149.036;2023-04-15T10:18:34;3.72;;;1.27;;
39694;SDS011;25367;-35.352;149.036;2023-04-15T10:21:07;5.88;;;1.73;;
39694;SDS011;25367;-35.352;149.036;2023-04-15T10:23:37;4.75;;;1.25;;
39694;SDS011;25367;-35.352;149.036;2023-04-15T10:26:10;5.25;;;1.52;;
39694;SDS011;25367;-35.352;149.036;2023-04-15T10:28:40;4.28;;;1.30;;
39694;SDS011;25367;-35.352;149.036;2023-04-15T10:31:12;8.47;;;1.70;;
39694;SDS011;25367;-35.352;149.036;2023-04-15T10:33:43;2.78;;;0.93;;
39694;SDS011;25367;-35.352;149.036;2023-04-15T10:36:12;9.23;;;1.95;;
39694;SDS011;25367;-35.352;149.036;2023-04-15T10:38:42;5.38;;;1.50;;
39694;SDS011;25367;-35.352;149.036;2023-04-15T10:41:16;6.82;;;1.60;;
39694;SDS011;25367;-35.352;149.036;2023-04-15T10:43:50;9.18;;;1.80;;
39694;SDS011;25367;-35.352;149.036;2023-04-15T10:46:23;6.63;;;1.55;;
39694;SDS011;25367;-35.352;149.036;2023-04-15T10:49:05;7.05;;;1.95;;
39694;SDS011;25367;-35.352;149.036;2023-04-15T10:51:36;7.40;;;1.50;;
39694;SDS011;25367;-35.352;149.036;2023-04-15T10:54:08;5.28;;;1.30;;
39694;SDS011;25367;-35.352;149.036;2023-04-15T10:56:43;14.88;;;2.05;;
39694;SDS011;25367;-35.352;149.036;2023-04-15T10:59:17;10.82;;;1.40;;
39694;SDS011;25367;-35.352;149.036;2023-04-15T11:01:52;5.63;;;1.42;;
39694;SDS011;25367;-35.352;149.036;2023-04-15T11:07:35;6.60;;;1.20;;
39694;SDS011;25367;-35.352;149.036;2023-04-15T11:13:19;3.67;;;1.48;;
39694;SDS011;25367;-35.352;149.036;2023-04-15T11:15:55;10.02;;;1.65;;
39694;SDS011;25367;-35.352;149.036;2023-04-15T11:18:28;11.02;;;1.92;;
39694;SDS011;25367;-35.352;149.036;2023-04-15T11:20:59;7.88;;;1.77;;
39694;SDS011;25367;-35.352;149.036;2023-04-15T11:23:34;4.32;;;1.40;;
39694;SDS011;25367;-35.352;149.036;2023-04-15T11:26:05;4.32;;;1.55;;
39694;SDS011;25367;-35.352;149.036;2023-04-15T11:28:39;4.53;;;1.50;;
39694;SDS011;25367;-35.352;149.036;2023-04-15T11:33:45;4.93;;;1.40;;
39694;SDS011;25367;-35.352;149.036;2023-04-15T11:36:20;5.18;;;1.30;;
39694;SDS011;25367;-35.352;149.036;2023-04-15T11:38:52;7.30;;;1.60;;
39694;SDS011;25367;-35.352;149.036;2023-04-15T11:41:24;4.40;;;1.60;;
39694;SDS011;25367;-35.352;149.036;2023-04-15T11:43:56;1.92;;;1.20;;
39694;SDS011;25367;-35.352;149.036;2023-04-15T11:46:29;5.35;;;1.40;;
39694;SDS011;25367;-35.352;149.036;2023-04-15T11:48:58;6.40;;;1.73;;
39694;SDS011;25367;-35.352;149.036;2023-04-15T11:51:31;9.02;;;1.45;;
39694;SDS011;25367;-35.352;149.036;2023-04-15T11:54:01;5.15;;;1.40;;
39694;SDS011;25367;-35.352;149.036;2023-04-15T11:56:30;6.30;;;2.30;;
39694;SDS011;25367;-35.352;149.036;2023-04-15T11:59:03;4.75;;;1.25;;
39694;SDS011;25367;-35.352;149.036;2023-04-15T12:01:32;3.72;;;1.27;;
39694;SDS011;25367;-35.352;149.036;2023-04-15T12:04:04;3.13;;;1.65;;
39694;SDS011;25367;-35.352;149.036;2023-04-15T12:06:39;7.75;;;1.77;;
39694;SDS011;25367;-35.352;149.036;2023-04-15T12:09:09;5.10;;;1.20;;
39694;SDS011;25367;-35.352;149.036;2023-04-15T12:11:39;3.65;;;1.38;;
39694;SDS011;25367;-35.352;149.036;2023-04-15T12:14:15;3.83;;;1.45;;
39694;SDS011;25367;-35.352;149.036;2023-04-15T12:16:51;2.10;;;1.25;;
39694;SDS011;25367;-35.352;149.036;2023-04-15T12:19:24;7.22;;;1.67;;
39694;SDS011;25367;-35.352;149.036;2023-04-15T12:21:56;5.13;;;1.48;;
39694;SDS011;25367;-35.352;149.036;2023-04-15T12:24:27;7.88;;;1.25;;
39694;SDS011;25367;-35.352;149.036;2023-04-15T12:27:01;4.83;;;1.70;;
39694;SDS011;25367;-35.352;149.036;2023-04-15T12:29:34;3.78;;;1.33;;
39694;SDS011;25367;-35.352;149.036;2023-04-15T12:34:32;6.72;;;1.45;;
39694;SDS011;25367;-35.352;149.036;2023-04-15T12:37:03;3.50;;;1.52;;
39694;SDS011;25367;-35.352;149.036;2023-04-15T12:39:34;3.88;;;1.20;;
39694;SDS011;25367;-35.352;149.036;2023-04-15T12:42:05;2.30;;;1.33;;
39694;SDS011;25367;-35.352;149.036;2023-04-15T12:44:36;5.65;;;1.10;;
39694;SDS011;25367;-35.352;149.036;2023-04-15T12:47:06;4.35;;;1.60;;
39694;SDS011;25367;-35.352;149.036;2023-04-15T12:49:36;3.30;;;1.20;;
39694;SDS011;25367;-35.352;149.036;2023-04-15T12:52:06;2.35;;;1.15;;
39694;SDS011;25367;-35.352;149.036;2023-04-15T12:54:35;2.28;;;1.40;;
39694;SDS011;25367;-35.352;149.036;2023-04-15T12:57:05;1.83;;;1.10;;
39694;SDS011;25367;-35.352;149.036;2023-04-15T12:59:38;2.53;;;1.40;;
39694;SDS011;25367;-35.352;149.036;2023-04-15T13:02:07;4.13;;;1.30;;
39694;SDS011;25367;-35.352;149.036;2023-04-15T13:04:36;4.28;;;1.33;;
39694;SDS011;25367;-35.352;149.036;2023-04-15T13:07:06;2.63;;;1.48;;
39694;SDS011;25367;-35.352;149.036;2023-04-15T13:09:36;3.15;;;1.27;;
39694;SDS011;25367;-35.352;149.036;2023-04-15T13:12:05;4.80;;;1.30;;
39694;SDS011;25367;-35.352;149.036;2023-04-15T13:14:38;2.70;;;1.25;;
39694;SDS011;25367;-35.352;149.036;2023-04-15T13:17:07;4.95;;;1.77;;
39694;SDS011;25367;-35.352;149.036;2023-04-15T13:19:37;4.88;;;1.35;;
39694;SDS011;25367;-35.352;149.036;2023-04-15T13:22:06;4.55;;;1.17;;
39694;SDS011;25367;-35.352;149.036;2023-04-15T13:24:36;5.82;;;1.80;;
39694;SDS011;25367;-35.352;149.036;2023-04-15T13:27:05;10.18;;;1.45;;
39694;SDS011;25367;-35.352;149.036;2023-04-15T13:29:36;2.40;;;1.35;;
39694;SDS011;25367;-35.352;149.036;2023-04-15T13:32:11;5.50;;;1.40;;
39694;SDS011;25367;-35.352;149.036;2023-04-15T13:34:40;3.15;;;1.30;;
39694;SDS011;25367;-35.352;149.036;2023-04-15T13:37:09;2.88;;;1.33;;
39694;SDS011;25367;-35.352;149.036;2023-04-15T13:39:39;4.13;;;1.20;;
39694;SDS011;25367;-35.352;149.036;2023-04-15T13:42:08;4.60;;;1.70;;
39694;SDS011;25367;-35.352;149.036;2023-04-15T13:44:41;4.35;;;1.23;;
39694;SDS011;25367;-35.352;149.036;2023-04-15T13:47:10;3.10;;;1.23;;
39694;SDS011;25367;-35.352;149.036;2023-04-15T13:49:40;5.32;;;1.50;;
39694;SDS011;25367;-35.352;149.036;2023-04-15T22:16:42;13.55;;;1.70;;
39694;SDS011;25367;-35.352;149.036;2023-04-15T22:19:11;4.72;;;2.08;;
39694;SDS011;25367;-35.352;149.036;2023-04-15T22:21:41;12.95;;;3.22;;
39694;SDS011;25367;-35.352;149.036;2023-04-15T22:24:10;15.27;;;2.50;;
39694;SDS011;25367;-35.352;149.036;2023-04-15T22:26:39;13.18;;;3.28;;
39694;SDS011;25367;-35.352;149.036;2023-04-15T22:29:10;21.10;;;3.38;;
39694;SDS011;25367;-35.352;149.036;2023-04-15T22:31:42;16.13;;;3.20;;
39694;SDS011;25367;-35.352;149.036;2023-04-15T22:34:11;18.73;;;3.40;;
39694;SDS011;25367;-35.352;149.036;2023-04-15T22:36:41;18.45;;;3.20;;
39694;SDS011;25367;-35.352;149.036;2023-04-15T22:39:11;13.98;;;3.58;;
39694;SDS011;25367;-35.352;149.036;2023-04-15T22:41:40;16.98;;;3.67;;
39694;SDS011;25367;-35.352;149.036;2023-04-15T22:44:10;14.30;;;3.05;;
39694;SDS011;25367;-35.352;149.036;2023-04-15T22:46:42;14.80;;;3.35;;
39694;SDS011;25367;-35.352;149.036;2023-04-15T22:49:11;11.00;;;2.85;;
39694;SDS011;25367;-35.352;149.036;2023-04-15T22:51:40;25.42;;;3.97;;
39694;SDS011;25367;-35.352;149.036;2023-04-15T22:54:10;9.85;;;3.22;;
39694;SDS011;25367;-35.352;149.036;2023-04-15T22:56:39;11.63;;;3.22;;
39694;SDS011;25367;-35.352;149.036;2023-04-15T22:59:09;15.60;;;3.22;;
39694;SDS011;25367;-35.352;149.036;2023-04-15T23:01:38;10.95;;;3.20;;
39694;SDS011;25367;-35.352;149.036;2023-04-15T23:04:10;15.80;;;3.17;;
39694;SDS011;25367;-35.352;149.036;2023-04-15T23:06:39;18.35;;;3.25;;
39694;SDS011;25367;-35.352;149.036;2023-04-15T23:09:08;7.30;;;2.60;;
39694;SDS011;25367;-35.352;149.036;2023-04-15T23:11:38;10.65;;;2.70;;
39694;SDS011;25367;-35.352;149.036;2023-04-15T23:14:07;12.90;;;3.05;;
39694;SDS011;25367;-35.352;149.036;2023-04-15T23:16:37;11.60;;;2.55;;
39694;SDS011;25367;-35.352;149.036;2023-04-15T23:19:08;14.32;;;2.45;;
39694;SDS011;25367;-35.352;149.036;2023-04-15T23:21:37;8.65;;;2.53;;
39694;SDS011;25367;-35.352;149.036;2023-04-15T23:24:07;16.60;;;2.80;;
39694;SDS011;25367;-35.352;149.036;2023-04-15T23:26:36;8.63;;;2.83;;
39694;SDS011;25367;-35.352;149.036;2023-04-15T23:29:06;38.33;;;3.83;;
39694;SDS011;25367;-35.352;149.036;2023-04-15T23:31:36;12.30;;;2.55;;
39694;SDS011;25367;-35.352;149.036;2023-04-15T23:34:08;10.73;;;2.20;;
39694;SDS011;25367;-35.352;149.036;2023-04-15T23:36:37;10.23;;;2.88;;
39694;SDS011;25367;-35.352;149.036;2023-04-15T23:39:07;8.38;;;2.58;;
39694;SDS011;25367;-35.352;149.036;2023-04-15T23:41:37;13.32;;;2.47;;
39694;SDS011;25367;-35.352;149.036;2023-04-15T23:44:07;9.25;;;2.50;;
39694;SDS011;25367;-35.352;149.036;2023-04-15T23:46:37;10.45;;;2.10;;
39694;SDS011;25367;-35.352;149.036;2023-04-15T23:49:08;8.70;;;1.80;;
39694;SDS011;25367;-35.352;149.036;2023-04-15T23:51:38;6.97;;;1.77;;
39694;SDS011;25367;-35.352;149.036;2023-04-15T23:54:07;6.40;;;1.98;;
39694;SDS011;25367;-35.352;149.036;2023-04-15T23:56:37;8.73;;;2.30;;
39694;SDS011;25367;-35.352;149.036;2023-04-15T23:59:07;5.72;;;1.98;;
